RÉSULTATS    Semi-Marathon de la Presqu'Ile - Édition du 14/04/2019
Vous pouvez changer la distance ici.
Vous pouvez changer la distance ici.
Classement Temps Réel - Temps Puce1792 participants - 642 Femmes
- 1150 Hommes
333 licenciés (19%) - 1459 non-licenciés (81%)
Temps moyen : 01:55:09
| Position | Pos. | Temps | Nom - Prénom | Club | Dossard | Catégorie | km/h | Temps Reel | |
|---|---|---|---|---|---|---|---|---|---|
| 590 | 01:46:50 | CROS Damien | 1560 | SEM (218 / 410) | 11.9 | 01:46:03 | |||
| 591 | 01:46:50 | DUSSIN Sebastien | 1907 | V1M (196 / 436) | 11.9 | 01:46:04 | |||
| 592 | 01:46:50 | DEWULF Antoine | 1269 | SEM (219 / 410) | 11.9 | 01:45:40 | |||
| 589 | 01:46:49 | JEAN Laurent | 318 | V1M (195 / 436) | 11.9 | 01:45:59 | |||
| 588 | 01:46:48 | LE MAILLOUX Eric | 1462 | V2M (74 / 215) | 11.9 | 01:45:51 | |||
| 586 | 01:46:47 | PAULIN Mickael | 808 | SEM (217 / 410) | 11.9 | 01:45:54 | |||
| 587 | 01:46:47 | BOURGUIGNON Theo | LE LIEVRE ET LA TORTUE ASCPR | 105 | JUM (4 / 13) | 11.9 | 01:45:46 | ||
| 585 | 01:46:45 | LOUBEAU Alexandre | 1581 | V1M (194 / 436) | 11.9 | 01:46:02 | |||
| 584 | 01:46:43 | SACRE Olivier | 1611 | SEM (216 / 410) | 11.9 | 01:46:07 | |||
| 583 | 01:46:39 | ELDUAYEN Frederique | FREDERIQUE | 686 | V1F (29 / 237) | 11.9 | 01:45:56 | ||
| 582 | 01:46:35 | MUNYEMANA Mickael | 380 | SEM (215 / 410) | 12.1 | 01:43:54 | |||
| 581 | 01:46:33 | CAULET Alexandre | GETRAG FORD | 1866 | V1M (193 / 436) | 11.9 | 01:46:04 | ||
| 579 | 01:46:30 | RIERA Francis | 1665 | V3M (15 / 51) | 11.9 | 01:45:39 | |||
| 580 | 01:46:30 | MERIGOUX Merigoux | S/L ATHLE SANTE GRADIGNAN | 949 | V1M (192 / 436) | 11.9 | 01:46:01 | ||
| 578 | 01:46:26 | CORDIER Stephanie | S/L UNION CLUB ATHLETIQUE | 563 | SEF (34 / 265) | 12.0 | 01:45:30 | ||
| 576 | 01:46:23 | CONTIS Jean luc | US TALENCE* | 1974 | V2M (73 / 215) | 11.9 | 01:45:56 | ||
| 577 | 01:46:23 | ABADIE Claire | 1728 | SEF (33 / 265) | 12.0 | 01:45:15 | |||
| 575 | 01:46:14 | PUYDEBOIS Thomas | 198 | SEM (214 / 410) | 12.1 | 01:44:12 | |||
| 574 | 01:46:13 | BERENGUER Tristan | 1054 | SEM (213 / 410) | 12.0 | 01:44:44 | |||
| 573 | 01:46:06 | JOUSSE Marlene | 983 | SEF (32 / 265) | 11.9 | 01:45:43 | |||
| 572 | 01:46:04 | LACROIX Dominique | 933 | V1M (191 / 436) | 12.0 | 01:45:24 | |||
| 570 | 01:46:00 | LAVARDA Alessandro | FRAISE ATHLETIQUE DU TAILLAN | 1711 | V2M (71 / 215) | 11.9 | 01:45:44 | ||
| 571 | 01:46:00 | GEORGES Dominique | S/L ATHLE SANTE GRADIGNAN | 954 | V2M (72 / 215) | 12.0 | 01:45:18 | ||
| 569 | 01:45:59 | DECOCK Benjamin | 327 | SEM (212 / 410) | 11.9 | 01:45:40 | |||
| 567 | 01:45:57 | LACOUCHIE Benoit | 1194 | V1M (190 / 436) | 12.0 | 01:45:14 |
